Redwood City, CA

02:43 PDT le 27 mai 2015 (GMT -0700)
Moffett Federal Air Field | | Change Station
CLOSE
Current Station
Aéroport
Location: Moffett NAS,
Altitude: 39 ft
Stations météo à proximité

Alt. 39 ft 37.41 °N, 122.05 °W | Updated 47 minutes ago

Couvert
Couvert
56 ° F
Paraît 56 ° F
N
4
Vent Variable Vent de NO

Aujourd'hui
Haut(e) -- | Bas -- ° F
--% Risque de précip.
Hier
Haut(e) -- | Bas -- ° F
Precip. -- pouce
5:52 AM 8:20 PM
Lune gibbeuse croissante, 66% visible
Pression 30.02 pouce
Visibilité 10.0 Miles terrestres
Nuages Couvert 2000 ft
Point de rosée 49 ° F
Humidité 77%
Précipitations 0.00 pouce
Profondeur de la couche neigeuse Non disponible.
UV 0 sur 12
Pollen 6.00 sur 12
Qualité de l'air Non disponible.
Flu Activity Sporadic
METAR KNUQ 270856Z AUTO 31003KT 10SM OVC020 13/09 A3001 RMK AO2 SLP165 T01330094 58001 TSNO

More Conditions Fewer Conditions

Pression 30.02 pouce
Visibilité 10.0 Miles terrestres
Nuages Couvert 2000 ft
Point de rosée 49 ° F
Humidité 77%
Précipitations 0.00 pouce
Profondeur de la couche neigeuse Non disponible.
UV 0 sur 12
Pollen 6.00 sur 12
Qualité de l'air Non disponible.
Flu Activity Sporadic
METAR KNUQ 270856Z AUTO 31003KT 10SM OVC020 13/09 A3001 RMK AO2 SLP165 T01330094 58001 TSNO

More Conditions Fewer Conditions

10-Day Weather Forecast

Almanac

Astronomie

May. 27, 2015 Lever Coucher
Temps réel
Crépuscule civil
Crépuscule nautique
Crépuscule astronomique
Lune
Durée de lumière visible
Longueur du jour
Tomorrow will be .
, % of the Moon is Illuminated

Extrêmes aujourd'hui

State Highs State Lows

Community

WunderPhotos

Upload Photos

1,824,635 Photos téléchargées !

WunderBlogs® & News

Nearby

Qualité de l'air

  Qualité de l'air Indice de la qualité de l'air Polluant
Not available.

Épaisseur de neige

Station Depth Altitude

Activité sismique

Ville Distance Mag. Time & Date
Minimum magnitude displayed is 2.5.

Températures des eaux côtières

Lieu Température

Stations

Stations météo à proximité

Emplacement de la station Température Refroidissement éolien Point de rosée Humidité Vent Precip. Alt. Mise à jour Type